PAN3704 SUMU-SBGL
Flight info
| Callsign | PAN3704 |
|---|---|
| Flight time | N/A |
| Altitude | 41000 |
| Route | CRR UM540 ITBEB UN857 AKNUB |
| Aircraft | B77L/H-SDE1E2E3FGHIJ2J3J4J5M1RWXY/LB1D1 |
Departure
| Time | 2026-04-30 20:39 |
|---|---|
| Airport | Carrasco General Cesáreo L. Berisso International Airport (SUMU) |
Arrival
| Time | N/A |
|---|---|
| Airport | Rio Galeão – Tom Jobim International Airport (SBGL) |
| Time | Latitude | Longitude | Altitude | Speed | Heading |
|---|---|---|---|---|---|
| 2026-04-30 20:05 | -34.83885 | -56.02593 | 82 ft | 0 kts | 88° |
| 2026-04-30 20:30 | -34.83885 | -56.02573 | 86 ft | 3 kts | 95° |
| 2026-04-30 20:31 | -34.83934 | -56.02567 | 86 ft | 4 kts | 241° |
| 2026-04-30 20:32 | -34.83975 | -56.02720 | 84 ft | 3 kts | 241° |
| 2026-04-30 20:32 | -34.84008 | -56.02814 | 68 ft | 9 kts | 259° |
| 2026-04-30 20:33 | -34.84012 | -56.02900 | 77 ft | 12 kts | 271° |
| 2026-04-30 20:33 | -34.84024 | -56.03089 | 67 ft | 12 kts | 250° |
| 2026-04-30 20:33 | -34.84058 | -56.03180 | 65 ft | 12 kts | 243° |
| 2026-04-30 20:34 | -34.84136 | -56.03359 | 66 ft | 13 kts | 242° |
| 2026-04-30 20:34 | -34.84229 | -56.03571 | 63 ft | 15 kts | 243° |
| 2026-04-30 20:35 | -34.84241 | -56.03637 | 65 ft | 0 kts | 275° |
| 2026-04-30 20:36 | -34.84236 | -56.03649 | 67 ft | 3 kts | 299° |
| 2026-04-30 20:36 | -34.84194 | -56.03647 | 68 ft | 4 kts | 35° |
| 2026-04-30 20:37 | -34.84179 | -56.03629 | 70 ft | 0 kts | 48° |
| 2026-04-30 20:38 | -34.84176 | -56.03625 | 63 ft | 8 kts | 49° |
| 2026-04-30 20:38 | -34.83917 | -56.03206 | 65 ft | 122 kts | 53° |
| 2026-04-30 20:38 | -34.83240 | -56.02054 | 499 ft | 190 kts | 58° |
| 2026-04-30 20:39 | -34.82195 | -55.99166 | 2946 ft | 198 kts | 66° |
| 2026-04-30 20:39 | -34.81538 | -55.97560 | 3258 ft | 231 kts | 46° |
| 2026-04-30 20:39 | -34.80175 | -55.96413 | 3882 ft | 247 kts | 26° |
| 2026-04-30 20:40 | -34.77056 | -55.94112 | 5832 ft | 274 kts | 32° |
| 2026-04-30 20:40 | -34.75475 | -55.92767 | 6922 ft | 281 kts | 34° |
| 2026-04-30 20:40 | -34.73880 | -55.91311 | 8001 ft | 289 kts | 35° |
| 2026-04-30 20:41 | -34.70670 | -55.88178 | 10115 ft | 304 kts | 36° |
| 2026-04-30 20:41 | -34.69006 | -55.86492 | 10865 ft | 323 kts | 37° |
| 2026-04-30 20:41 | -34.67194 | -55.84632 | 11166 ft | 356 kts | 37° |
| 2026-04-30 20:41 | -34.65222 | -55.82585 | 11531 ft | 385 kts | 38° |
| 2026-04-30 20:42 | -34.63170 | -55.80433 | 12390 ft | 397 kts | 38° |
| 2026-04-30 20:42 | -34.61062 | -55.78209 | 13376 ft | 405 kts | 38° |
| 2026-04-30 20:42 | -34.56729 | -55.73632 | 15253 ft | 419 kts | 37° |
| 2026-04-30 20:43 | -34.54548 | -55.71333 | 16162 ft | 425 kts | 36° |
| 2026-04-30 20:43 | -34.52285 | -55.68951 | 17074 ft | 431 kts | 36° |
| 2026-04-30 20:43 | -34.50003 | -55.66552 | 17960 ft | 438 kts | 36° |
| 2026-04-30 20:44 | -34.45332 | -55.61648 | 19544 ft | 449 kts | 35° |
| 2026-04-30 20:44 | -34.42957 | -55.59155 | 20351 ft | 453 kts | 35° |
| 2026-04-30 20:44 | -34.38144 | -55.54109 | 21903 ft | 463 kts | 34° |
| 2026-04-30 20:45 | -34.33209 | -55.48943 | 23378 ft | 474 kts | 34° |
| 2026-04-30 20:45 | -34.30707 | -55.46297 | 24034 ft | 479 kts | 34° |
| 2026-04-30 20:45 | -34.28192 | -55.43624 | 24690 ft | 483 kts | 34° |
| 2026-04-30 20:46 | -34.20571 | -55.35516 | 26680 ft | 493 kts | 34° |
| 2026-04-30 20:46 | -34.17987 | -55.32773 | 27307 ft | 497 kts | 34° |
| 2026-04-30 20:47 | -34.12747 | -55.27227 | 28552 ft | 505 kts | 34° |
| 2026-04-30 20:47 | -34.10101 | -55.24430 | 29144 ft | 509 kts | 34° |
| 2026-04-30 20:48 | -34.04728 | -55.18759 | 30245 ft | 515 kts | 34° |
| 2026-04-30 20:48 | -34.02030 | -55.15914 | 30792 ft | 515 kts | 34° |
| 2026-04-30 20:48 | -33.99339 | -55.13075 | 31487 ft | 512 kts | 34° |
| 2026-04-30 20:48 | -33.96667 | -55.10255 | 32198 ft | 508 kts | 34° |
| 2026-04-30 20:49 | -33.94009 | -55.07456 | 32834 ft | 506 kts | 34° |
| 2026-04-30 20:49 | -33.91356 | -55.04668 | 33413 ft | 506 kts | 34° |
| 2026-04-30 20:49 | -33.88704 | -55.01886 | 34001 ft | 504 kts | 34° |
| 2026-04-30 20:50 | -33.83459 | -54.96390 | 34956 ft | 503 kts | 34° |
| 2026-04-30 20:50 | -33.80815 | -54.93624 | 35374 ft | 503 kts | 34° |
| 2026-04-30 20:50 | -33.78178 | -54.90867 | 35813 ft | 503 kts | 34° |
| 2026-04-30 20:50 | -33.75538 | -54.88110 | 36243 ft | 503 kts | 34° |
| 2026-04-30 20:51 | -33.72902 | -54.85357 | 36667 ft | 502 kts | 33° |
| 2026-04-30 20:51 | -33.67621 | -54.79850 | 37456 ft | 502 kts | 33° |
| 2026-04-30 20:51 | -33.64977 | -54.77096 | 37836 ft | 503 kts | 33° |
| 2026-04-30 20:52 | -33.62336 | -54.74347 | 38227 ft | 502 kts | 33° |
| 2026-04-30 20:52 | -33.59687 | -54.71593 | 38610 ft | 502 kts | 33° |
| 2026-04-30 20:52 | -33.54393 | -54.66098 | 38981 ft | 508 kts | 33° |
| 2026-04-30 20:53 | -33.51711 | -54.63320 | 39027 ft | 510 kts | 33° |
| 2026-04-30 20:53 | -33.46346 | -54.57760 | 39028 ft | 508 kts | 33° |
| 2026-04-30 20:54 | -33.38419 | -54.49556 | 39036 ft | 502 kts | 33° |
| 2026-04-30 20:55 | -33.30482 | -54.41376 | 39046 ft | 502 kts | 33° |
| 2026-04-30 20:55 | -33.26077 | -54.36845 | 39041 ft | 503 kts | 33° |
| 2026-04-30 20:56 | -33.18112 | -54.28666 | 39043 ft | 504 kts | 33° |
| 2026-04-30 20:57 | -33.10112 | -54.20469 | 39062 ft | 505 kts | 33° |
| 2026-04-30 20:57 | -33.04768 | -54.15005 | 39055 ft | 506 kts | 33° |
| 2026-04-30 20:58 | -32.96731 | -54.06803 | 39057 ft | 507 kts | 33° |
| 2026-04-30 20:58 | -32.91360 | -54.01335 | 39059 ft | 508 kts | 33° |
| 2026-04-30 20:59 | -32.83336 | -53.93181 | 39056 ft | 507 kts | 32° |
| 2026-04-30 21:00 | -32.72594 | -53.82296 | 39052 ft | 507 kts | 32° |
| 2026-04-30 21:01 | -32.64547 | -53.74166 | 39054 ft | 506 kts | 32° |
| 2026-04-30 21:02 | -32.56482 | -53.66037 | 39059 ft | 507 kts | 32° |
| 2026-04-30 21:02 | -32.51110 | -53.60633 | 39060 ft | 507 kts | 32° |
| 2026-04-30 21:03 | -32.45768 | -53.55260 | 39063 ft | 508 kts | 33° |
| 2026-04-30 21:03 | -32.40498 | -53.49639 | 39065 ft | 510 kts | 35° |
| 2026-04-30 21:04 | -32.35306 | -53.43930 | 39066 ft | 511 kts | 35° |
| 2026-04-30 21:04 | -32.27447 | -53.35375 | 39068 ft | 511 kts | 34° |
| 2026-04-30 21:05 | -32.22191 | -53.29710 | 39082 ft | 511 kts | 34° |
| 2026-04-30 21:05 | -32.16934 | -53.24057 | 39080 ft | 512 kts | 34° |
| 2026-04-30 21:06 | -32.11657 | -53.18389 | 39079 ft | 512 kts | 34° |
| 2026-04-30 21:06 | -32.06377 | -53.12724 | 39072 ft | 512 kts | 34° |
| 2026-04-30 21:07 | -32.01095 | -53.07065 | 39074 ft | 512 kts | 34° |
| 2026-04-30 21:07 | -31.95812 | -53.01417 | 39069 ft | 512 kts | 34° |
| 2026-04-30 21:08 | -31.90571 | -52.95821 | 39066 ft | 512 kts | 34° |
| 2026-04-30 21:08 | -31.85278 | -52.90178 | 39076 ft | 512 kts | 34° |
| 2026-04-30 21:09 | -31.79994 | -52.84555 | 39070 ft | 512 kts | 34° |
| 2026-04-30 21:09 | -31.74702 | -52.78932 | 39074 ft | 512 kts | 34° |
| 2026-04-30 21:10 | -31.69448 | -52.73359 | 39084 ft | 512 kts | 34° |
| 2026-04-30 21:10 | -31.64153 | -52.67750 | 39078 ft | 513 kts | 33° |
| 2026-04-30 21:11 | -31.58857 | -52.62148 | 39094 ft | 513 kts | 33° |
| 2026-04-30 21:11 | -31.53552 | -52.56547 | 39088 ft | 513 kts | 33° |
| 2026-04-30 21:12 | -31.48238 | -52.50935 | 39085 ft | 513 kts | 33° |
| 2026-04-30 21:12 | -31.42929 | -52.45333 | 39088 ft | 513 kts | 33° |
| 2026-04-30 21:13 | -31.37612 | -52.39735 | 39092 ft | 514 kts | 33° |
| 2026-04-30 21:13 | -31.32294 | -52.34142 | 39094 ft | 514 kts | 33° |
| 2026-04-30 21:14 | -31.26993 | -52.28576 | 39091 ft | 515 kts | 33° |
| 2026-04-30 21:14 | -31.21662 | -52.22987 | 39091 ft | 515 kts | 33° |
| 2026-04-30 21:15 | -31.16321 | -52.17397 | 39084 ft | 514 kts | 33° |
| 2026-04-30 21:15 | -31.10981 | -52.11816 | 39090 ft | 515 kts | 33° |
| 2026-04-30 21:16 | -31.05642 | -52.06245 | 39092 ft | 515 kts | 33° |
| 2026-04-30 21:16 | -31.00295 | -52.00676 | 39097 ft | 515 kts | 33° |
| 2026-04-30 21:17 | -30.94979 | -51.95147 | 39107 ft | 516 kts | 33° |
| 2026-04-30 21:17 | -30.89613 | -51.89575 | 39104 ft | 516 kts | 33° |
| 2026-04-30 21:18 | -30.84237 | -51.84001 | 39102 ft | 517 kts | 33° |
| 2026-04-30 21:18 | -30.78869 | -51.78443 | 39105 ft | 517 kts | 33° |
| 2026-04-30 21:19 | -30.73486 | -51.72878 | 39099 ft | 517 kts | 33° |
| 2026-04-30 21:19 | -30.68108 | -51.67328 | 39107 ft | 517 kts | 33° |
| 2026-04-30 21:20 | -30.62727 | -51.61781 | 39111 ft | 517 kts | 33° |
| 2026-04-30 21:20 | -30.57349 | -51.56247 | 39108 ft | 517 kts | 33° |
| 2026-04-30 21:21 | -30.51951 | -51.50718 | 39105 ft | 516 kts | 32° |
| 2026-04-30 21:22 | -30.43821 | -51.42618 | 39115 ft | 515 kts | 31° |
| 2026-04-30 21:23 | -30.32922 | -51.31796 | 39110 ft | 516 kts | 32° |
| 2026-04-30 21:23 | -30.24721 | -51.23649 | 39097 ft | 517 kts | 31° |
| 2026-04-30 21:24 | -30.19260 | -51.18236 | 39090 ft | 517 kts | 31° |
| 2026-04-30 21:24 | -30.13792 | -51.12824 | 39094 ft | 518 kts | 31° |
| 2026-04-30 21:25 | -30.05567 | -51.04699 | 39087 ft | 519 kts | 31° |
| 2026-04-30 21:26 | -29.97363 | -50.96612 | 39082 ft | 519 kts | 31° |
| 2026-04-30 21:27 | -29.89124 | -50.88507 | 39092 ft | 519 kts | 31° |
| 2026-04-30 21:27 | -29.83499 | -50.83379 | 39098 ft | 513 kts | 27° |
| 2026-04-30 21:28 | -29.74930 | -50.75998 | 39107 ft | 512 kts | 27° |
| 2026-04-30 21:29 | -29.66391 | -50.68582 | 39113 ft | 513 kts | 27° |
| 2026-04-30 21:30 | -29.52260 | -50.56139 | 39138 ft | 520 kts | 32° |
| 2026-04-30 21:31 | -29.39603 | -50.40877 | 39156 ft | 529 kts | 38° |
| 2026-04-30 21:32 | -29.32061 | -50.31726 | 39158 ft | 529 kts | 38° |
| 2026-04-30 21:32 | -29.26976 | -50.25603 | 39165 ft | 529 kts | 38° |
| 2026-04-30 21:33 | -29.19358 | -50.16437 | 39163 ft | 529 kts | 38° |
| 2026-04-30 21:34 | -29.14272 | -50.10324 | 39163 ft | 529 kts | 38° |
| 2026-04-30 21:34 | -29.06662 | -50.01196 | 39167 ft | 528 kts | 38° |
| 2026-04-30 21:35 | -29.01587 | -49.95123 | 39171 ft | 528 kts | 38° |
| 2026-04-30 21:35 | -28.96539 | -49.89089 | 39094 ft | 528 kts | 38° |
| 2026-04-30 21:36 | -28.91484 | -49.83051 | 39165 ft | 526 kts | 38° |
| 2026-04-30 21:37 | -28.81516 | -49.70641 | 39156 ft | 531 kts | 41° |
| 2026-04-30 21:37 | -28.76615 | -49.64404 | 39168 ft | 532 kts | 40° |
| 2026-04-30 21:38 | -28.71655 | -49.58149 | 39166 ft | 532 kts | 40° |
| 2026-04-30 21:38 | -28.67517 | -49.52954 | 39159 ft | 532 kts | 40° |
| 2026-04-30 21:39 | -28.62537 | -49.46711 | 39164 ft | 532 kts | 40° |
| 2026-04-30 21:39 | -28.57556 | -49.40472 | 39161 ft | 532 kts | 40° |
| 2026-04-30 21:40 | -28.52576 | -49.34240 | 39156 ft | 532 kts | 40° |
| 2026-04-30 21:40 | -28.47591 | -49.28013 | 39158 ft | 532 kts | 40° |
| 2026-04-30 21:41 | -28.42601 | -49.21804 | 39155 ft | 531 kts | 40° |
| 2026-04-30 21:41 | -28.37605 | -49.15624 | 39163 ft | 530 kts | 40° |
| 2026-04-30 21:42 | -28.32616 | -49.09456 | 39162 ft | 530 kts | 40° |
| 2026-04-30 21:42 | -28.27627 | -49.03287 | 39146 ft | 530 kts | 40° |
| 2026-04-30 21:43 | -28.22710 | -48.97068 | 39163 ft | 529 kts | 41° |
| 2026-04-30 21:43 | -28.17833 | -48.90904 | 39151 ft | 528 kts | 40° |
| 2026-04-30 21:44 | -28.12893 | -48.84739 | 39154 ft | 528 kts | 40° |
| 2026-04-30 21:44 | -28.07964 | -48.78598 | 39160 ft | 527 kts | 40° |
| 2026-04-30 21:45 | -28.03029 | -48.72447 | 39141 ft | 527 kts | 40° |
| 2026-04-30 21:45 | -27.98094 | -48.66297 | 39167 ft | 528 kts | 40° |
| 2026-04-30 21:46 | -27.93151 | -48.60150 | 39145 ft | 529 kts | 40° |
| 2026-04-30 21:46 | -27.88192 | -48.53990 | 39129 ft | 530 kts | 40° |
| 2026-04-30 21:47 | -27.83226 | -48.47831 | 39118 ft | 530 kts | 40° |
| 2026-04-30 21:47 | -27.78267 | -48.41687 | 39114 ft | 530 kts | 40° |
| 2026-04-30 21:48 | -27.73283 | -48.35522 | 39117 ft | 530 kts | 40° |
| 2026-04-30 21:48 | -27.68311 | -48.29381 | 39122 ft | 529 kts | 40° |
| 2026-04-30 21:49 | -27.63373 | -48.23294 | 39132 ft | 529 kts | 40° |
| 2026-04-30 21:49 | -27.58405 | -48.17174 | 39135 ft | 528 kts | 40° |
| 2026-04-30 21:50 | -27.53438 | -48.11064 | 39141 ft | 528 kts | 40° |
| 2026-04-30 21:50 | -27.48486 | -48.04979 | 39140 ft | 528 kts | 40° |
| 2026-04-30 21:51 | -27.43516 | -47.98881 | 39143 ft | 528 kts | 40° |
| 2026-04-30 21:51 | -27.38554 | -47.92802 | 39140 ft | 527 kts | 40° |
| 2026-04-30 21:52 | -27.33566 | -47.86739 | 39141 ft | 527 kts | 40° |
| 2026-04-30 21:52 | -27.28575 | -47.80706 | 39144 ft | 527 kts | 40° |
| 2026-04-30 21:53 | -27.23573 | -47.74663 | 39134 ft | 527 kts | 40° |
| 2026-04-30 21:53 | -27.18581 | -47.68632 | 39133 ft | 527 kts | 40° |
| 2026-04-30 21:54 | -27.13615 | -47.62639 | 39133 ft | 527 kts | 40° |
| 2026-04-30 21:54 | -27.08609 | -47.56608 | 39129 ft | 527 kts | 40° |
| 2026-04-30 21:55 | -27.03608 | -47.50592 | 39130 ft | 527 kts | 40° |
| 2026-04-30 21:55 | -26.98607 | -47.44583 | 39129 ft | 527 kts | 40° |
| 2026-04-30 21:56 | -26.93597 | -47.38571 | 39127 ft | 527 kts | 40° |
| 2026-04-30 21:56 | -26.88586 | -47.32566 | 39130 ft | 528 kts | 40° |
| 2026-04-30 21:57 | -26.83552 | -47.26568 | 39125 ft | 528 kts | 40° |
| 2026-04-30 21:57 | -26.78519 | -47.20589 | 39128 ft | 528 kts | 40° |
| 2026-04-30 21:58 | -26.73488 | -47.14612 | 39124 ft | 528 kts | 40° |
| 2026-04-30 21:58 | -26.68453 | -47.08610 | 39132 ft | 528 kts | 40° |
| 2026-04-30 21:59 | -26.63448 | -47.02606 | 39125 ft | 528 kts | 40° |
| 2026-04-30 22:00 | -26.55914 | -46.93654 | 39120 ft | 527 kts | 40° |
| 2026-04-30 22:00 | -26.48344 | -46.84797 | 39120 ft | 527 kts | 40° |
| 2026-04-30 22:01 | -26.43279 | -46.78863 | 39119 ft | 528 kts | 40° |
| 2026-04-30 22:01 | -26.38216 | -46.72934 | 39118 ft | 528 kts | 40° |
| 2026-04-30 22:02 | -26.33135 | -46.66996 | 39115 ft | 528 kts | 40° |
| 2026-04-30 22:02 | -26.28066 | -46.61078 | 39115 ft | 528 kts | 40° |
| 2026-04-30 22:03 | -26.22988 | -46.55155 | 39114 ft | 527 kts | 40° |
| 2026-04-30 22:03 | -26.17927 | -46.49258 | 39116 ft | 526 kts | 40° |
| 2026-04-30 22:04 | -26.12869 | -46.43374 | 39116 ft | 526 kts | 40° |
| 2026-04-30 22:05 | -26.05285 | -46.34567 | 39116 ft | 525 kts | 40° |
| 2026-04-30 22:05 | -26.00249 | -46.28728 | 39118 ft | 524 kts | 40° |
| 2026-04-30 22:06 | -25.95194 | -46.22876 | 39115 ft | 524 kts | 40° |
| 2026-04-30 22:06 | -25.87615 | -46.14114 | 39108 ft | 524 kts | 40° |
| 2026-04-30 22:07 | -25.82566 | -46.08286 | 39126 ft | 523 kts | 40° |
| 2026-04-30 22:07 | -25.77527 | -46.02478 | 39111 ft | 523 kts | 40° |
| 2026-04-30 22:08 | -25.72463 | -45.96647 | 39107 ft | 523 kts | 40° |
| 2026-04-30 22:08 | -25.68122 | -45.91655 | 39125 ft | 523 kts | 40° |
| 2026-04-30 22:09 | -25.63060 | -45.85844 | 39119 ft | 523 kts | 40° |
| 2026-04-30 22:09 | -25.58002 | -45.80049 | 39112 ft | 523 kts | 40° |
| 2026-04-30 22:10 | -25.52977 | -45.74299 | 39115 ft | 523 kts | 40° |
| 2026-04-30 22:10 | -25.47921 | -45.68518 | 39121 ft | 522 kts | 40° |
| 2026-04-30 22:11 | -25.40330 | -45.59851 | 39121 ft | 522 kts | 40° |
| 2026-04-30 22:12 | -25.35284 | -45.54099 | 39117 ft | 521 kts | 40° |
| 2026-04-30 22:12 | -25.30232 | -45.48348 | 39113 ft | 520 kts | 40° |
| 2026-04-30 22:13 | -25.25176 | -45.42599 | 39118 ft | 520 kts | 40° |
| 2026-04-30 22:13 | -25.20135 | -45.36876 | 39118 ft | 519 kts | 40° |
| 2026-04-30 22:14 | -25.15104 | -45.31171 | 39118 ft | 518 kts | 40° |
| 2026-04-30 22:14 | -25.10080 | -45.25480 | 39114 ft | 518 kts | 40° |
| 2026-04-30 22:15 | -25.05083 | -45.19828 | 39116 ft | 517 kts | 40° |
| 2026-04-30 22:15 | -25.00051 | -45.14142 | 39121 ft | 517 kts | 40° |
| 2026-04-30 22:16 | -24.95032 | -45.08480 | 39120 ft | 516 kts | 40° |
| 2026-04-30 22:17 | -24.84992 | -44.97170 | 39116 ft | 515 kts | 40° |
| 2026-04-30 22:17 | -24.77482 | -44.88730 | 39118 ft | 513 kts | 40° |
| 2026-04-30 22:18 | -24.69991 | -44.80326 | 39121 ft | 512 kts | 40° |
| 2026-04-30 22:19 | -24.62526 | -44.71964 | 38983 ft | 508 kts | 40° |
| 2026-04-30 22:19 | -24.57559 | -44.66412 | 38178 ft | 512 kts | 40° |
| 2026-04-30 22:20 | -24.55082 | -44.63646 | 37728 ft | 514 kts | 40° |
| 2026-04-30 22:20 | -24.50774 | -44.59130 | 37155 ft | 507 kts | 33° |
| 2026-04-30 22:20 | -24.47975 | -44.56820 | 36887 ft | 500 kts | 28° |
| 2026-04-30 22:21 | -24.45044 | -44.54776 | 36648 ft | 492 kts | 22° |
| 2026-04-30 22:21 | -24.41054 | -44.52511 | 36322 ft | 486 kts | 20° |
| 2026-04-30 22:21 | -24.39019 | -44.51394 | 36139 ft | 483 kts | 20° |
| 2026-04-30 22:21 | -24.36026 | -44.49756 | 35688 ft | 479 kts | 20° |
| 2026-04-30 22:22 | -24.33069 | -44.48130 | 35224 ft | 474 kts | 20° |
| 2026-04-30 22:22 | -24.30129 | -44.46502 | 34760 ft | 470 kts | 21° |
| 2026-04-30 22:22 | -24.27229 | -44.44889 | 34293 ft | 467 kts | 21° |
| 2026-04-30 22:22 | -24.24343 | -44.43278 | 33771 ft | 463 kts | 21° |
| 2026-04-30 22:23 | -24.21478 | -44.41677 | 33266 ft | 459 kts | 21° |
| 2026-04-30 22:23 | -24.18650 | -44.40097 | 32799 ft | 455 kts | 21° |
| 2026-04-30 22:23 | -24.15838 | -44.38526 | 32333 ft | 451 kts | 21° |
| 2026-04-30 22:23 | -24.13051 | -44.36971 | 31872 ft | 447 kts | 21° |
| 2026-04-30 22:24 | -24.10288 | -44.35431 | 31421 ft | 444 kts | 21° |
| 2026-04-30 22:24 | -24.07548 | -44.33905 | 30972 ft | 441 kts | 21° |
| 2026-04-30 22:24 | -24.04817 | -44.32384 | 30526 ft | 438 kts | 21° |
| 2026-04-30 22:24 | -24.02111 | -44.30879 | 30055 ft | 436 kts | 21° |
| 2026-04-30 22:25 | -24.01057 | -44.30292 | 29842 ft | 435 kts | 21° |
| 2026-04-30 22:25 | -23.99335 | -44.29335 | 29512 ft | 432 kts | 21° |
| 2026-04-30 22:25 | -23.96694 | -44.27865 | 29044 ft | 429 kts | 21° |
| 2026-04-30 22:25 | -23.94043 | -44.26391 | 28585 ft | 425 kts | 21° |
| 2026-04-30 22:26 | -23.89902 | -44.22948 | 27984 ft | 425 kts | 43° |
| 2026-04-30 22:26 | -23.88516 | -44.21021 | 27671 ft | 429 kts | 53° |
| 2026-04-30 22:26 | -23.87100 | -44.18110 | 27283 ft | 438 kts | 62° |
| 2026-04-30 22:27 | -23.85832 | -44.15057 | 26875 ft | 442 kts | 62° |
| 2026-04-30 22:27 | -23.84548 | -44.12020 | 26462 ft | 439 kts | 61° |
| 2026-04-30 22:27 | -23.81500 | -44.06427 | 25625 ft | 416 kts | 38° |
| 2026-04-30 22:28 | -23.76667 | -44.03525 | 24900 ft | 390 kts | 9° |
| 2026-04-30 22:28 | -23.74040 | -44.03112 | 24540 ft | 376 kts | 358° |
| 2026-04-30 22:29 | -23.66147 | -44.02723 | 23429 ft | 379 kts | 358° |
| 2026-04-30 22:29 | -23.63519 | -44.02571 | 23039 ft | 377 kts | 358° |
| 2026-04-30 22:30 | -23.53197 | -44.01912 | 21687 ft | 365 kts | 359° |
| 2026-04-30 22:31 | -23.45666 | -44.01432 | 20797 ft | 363 kts | 359° |
| 2026-04-30 22:32 | -23.38124 | -44.00957 | 19739 ft | 359 kts | 359° |
| 2026-04-30 22:32 | -23.33184 | -44.00645 | 19061 ft | 353 kts | 360° |
| 2026-04-30 22:33 | -23.25916 | -44.00187 | 18020 ft | 346 kts | 360° |
| 2026-04-30 22:33 | -23.21147 | -43.99886 | 17343 ft | 340 kts | 0° |
| 2026-04-30 22:34 | -23.14107 | -43.99445 | 16383 ft | 338 kts | 0° |
| 2026-04-30 22:35 | -23.09384 | -43.99149 | 15758 ft | 340 kts | 1° |
| 2026-04-30 22:36 | -22.99962 | -43.98557 | 14469 ft | 337 kts | 1° |
| 2026-04-30 22:36 | -22.97625 | -43.98410 | 14144 ft | 335 kts | 1° |
| 2026-04-30 22:37 | -22.91669 | -43.95430 | 13150 ft | 329 kts | 54° |
| 2026-04-30 22:37 | -22.90579 | -43.93277 | 12852 ft | 329 kts | 63° |
| 2026-04-30 22:37 | -22.88641 | -43.88801 | 12208 ft | 322 kts | 64° |
| 2026-04-30 22:38 | -22.86730 | -43.84407 | 11600 ft | 325 kts | 63° |
| 2026-04-30 22:38 | -22.84772 | -43.79986 | 10983 ft | 322 kts | 63° |
| 2026-04-30 22:39 | -22.83805 | -43.77816 | 10667 ft | 314 kts | 63° |
| 2026-04-30 22:39 | -22.81122 | -43.71798 | 9821 ft | 278 kts | 66° |
| 2026-04-30 22:40 | -22.79648 | -43.65647 | 8999 ft | 285 kts | 76° |
| 2026-04-30 22:41 | -22.78224 | -43.59416 | 8235 ft | 287 kts | 76° |
| 2026-04-30 22:41 | -22.77234 | -43.55307 | 7626 ft | 272 kts | 69° |
| 2026-04-30 22:42 | -22.70817 | -43.51822 | 6624 ft | 272 kts | 15° |
| 2026-04-30 22:43 | -22.68170 | -43.49214 | 6079 ft | 269 kts | 73° |
| 2026-04-30 22:43 | -22.68745 | -43.45314 | 5243 ft | 272 kts | 120° |
| 2026-04-30 22:44 | -22.70793 | -43.42170 | 5042 ft | 243 kts | 125° |
| 2026-04-30 22:45 | -22.74225 | -43.37001 | 4301 ft | 185 kts | 124° |
| 2026-04-30 22:45 | -22.75727 | -43.34759 | 3419 ft | 180 kts | 125° |
| 2026-04-30 22:46 | -22.77178 | -43.32574 | 2591 ft | 173 kts | 122° |
| 2026-04-30 22:47 | -22.79049 | -43.27868 | 5098 ft | 182 kts | 83° |
| 2026-04-30 22:47 | -22.77988 | -43.25268 | 6830 ft | 210 kts | 45° |
| 2026-04-30 22:48 | -22.74912 | -43.23837 | 7275 ft | 297 kts | 5° |
| 2026-04-30 22:49 | -22.69725 | -43.26791 | 10783 ft | 308 kts | 297° |
| 2026-04-30 22:49 | -22.70057 | -43.33457 | 13840 ft | 303 kts | 242° |
| 2026-04-30 22:50 | -22.74071 | -43.41565 | 14149 ft | 314 kts | 261° |
| 2026-04-30 22:51 | -22.74149 | -43.46286 | 14219 ft | 322 kts | 279° |
| 2026-04-30 22:51 | -22.73173 | -43.51053 | 14481 ft | 323 kts | 285° |
| 2026-04-30 22:52 | -22.72656 | -43.53448 | 14343 ft | 330 kts | 283° |
| 2026-04-30 22:52 | -22.71575 | -43.58330 | 14076 ft | 335 kts | 292° |
| 2026-04-30 22:53 | -22.69541 | -43.62970 | 13767 ft | 344 kts | 297° |
| 2026-04-30 22:53 | -22.67435 | -43.67662 | 13416 ft | 350 kts | 289° |
| 2026-04-30 22:53 | -22.67003 | -43.70278 | 13230 ft | 356 kts | 273° |
| 2026-04-30 22:54 | -22.68066 | -43.75569 | 12756 ft | 371 kts | 246° |
| 2026-04-30 22:55 | -22.71760 | -43.82629 | 11838 ft | 336 kts | 240° |